createdAt,value
2022-12-22T00:00:41.331Z,3.95
2022-12-22T00:03:32.566Z,3.93
2022-12-22T00:06:18.161Z,3.85
2022-12-22T00:09:05.795Z,3.68
2022-12-22T00:11:51.643Z,3.71
2022-12-22T00:14:37.215Z,3.91
2022-12-22T00:17:35.410Z,3.54
2022-12-22T00:20:21.051Z,3.46
2022-12-22T00:23:07.445Z,3.21
2022-12-22T00:25:53.171Z,3.29
2022-12-22T00:28:38.718Z,3.19
2022-12-22T00:31:24.380Z,3.51
2022-12-22T00:34:09.949Z,3.22
2022-12-22T00:36:55.494Z,3.47
2022-12-22T00:39:40.997Z,3.23
2022-12-22T00:42:26.567Z,3.48
2022-12-22T00:45:12.089Z,3.21
2022-12-22T00:47:58.229Z,3.24
2022-12-22T00:50:50.483Z,3.31
2022-12-22T00:53:37.141Z,3.19
2022-12-22T00:56:24.595Z,3.30
2022-12-22T00:59:13.326Z,3.25
2022-12-22T01:02:00.072Z,3.32
2022-12-22T01:04:45.794Z,3.38
2022-12-22T01:07:32.360Z,3.68
2022-12-22T01:10:19.147Z,3.59
2022-12-22T01:13:05.338Z,3.51
2022-12-22T01:15:51.282Z,3.49
2022-12-22T01:18:36.803Z,3.52
2022-12-22T01:21:22.592Z,3.74
2022-12-22T01:24:08.212Z,3.50
2022-12-22T01:26:53.803Z,3.46
2022-12-22T01:29:39.396Z,3.68
2022-12-22T01:32:24.924Z,3.65
2022-12-22T01:35:10.874Z,3.85
2022-12-22T01:37:56.638Z,3.75
2022-12-22T01:40:43.854Z,3.75
2022-12-22T01:43:42.913Z,3.68
2022-12-22T01:46:43.825Z,3.72
2022-12-22T01:49:37.696Z,3.65
2022-12-22T01:52:25.132Z,3.56
2022-12-22T01:55:13.762Z,3.56
2022-12-22T01:57:59.912Z,3.67
2022-12-22T02:00:45.526Z,3.56
2022-12-22T02:03:36.592Z,3.76
2022-12-22T02:06:31.378Z,3.89
2022-12-22T02:09:44.771Z,4.00
2022-12-22T02:13:05.491Z,4.27
2022-12-22T02:16:09.684Z,4.31
2022-12-22T02:19:16.059Z,4.33
2022-12-22T02:22:11.849Z,4.51
2022-12-22T02:25:07.934Z,4.23
2022-12-22T02:27:57.607Z,4.11
2022-12-22T02:30:45.252Z,4.03
2022-12-22T02:33:31.846Z,3.98
2022-12-22T02:36:24.039Z,3.93
2022-12-22T02:39:25.227Z,3.96
2022-12-22T02:42:32.693Z,3.98
2022-12-22T02:45:57.488Z,3.97
2022-12-22T02:48:52.765Z,3.93
2022-12-22T02:51:44.510Z,3.94
2022-12-22T02:54:32.672Z,3.95
2022-12-22T02:57:22.189Z,3.95
2022-12-22T03:00:07.913Z,4.06
2022-12-22T03:02:53.651Z,4.20
2022-12-22T03:05:39.222Z,4.13
2022-12-22T03:08:25.468Z,4.10
2022-12-22T03:11:11.067Z,4.03
2022-12-22T03:13:56.421Z,3.97
2022-12-22T03:16:42.177Z,3.89
2022-12-22T03:19:27.947Z,3.76
2022-12-22T03:22:13.913Z,3.77
2022-12-22T03:24:59.718Z,3.65
2022-12-22T03:27:27.023Z,3.68
2022-12-22T03:29:54.127Z,3.73
2022-12-22T03:32:21.300Z,3.68
2022-12-22T03:34:48.505Z,3.59
2022-12-22T03:37:15.895Z,3.67
2022-12-22T03:39:43.040Z,3.69
2022-12-22T03:42:31.846Z,3.69
2022-12-22T03:45:17.373Z,3.77
2022-12-22T03:47:44.318Z,3.98
2022-12-22T03:50:11.539Z,3.76
2022-12-22T03:52:38.670Z,3.78
2022-12-22T03:55:06.413Z,3.75
2022-12-22T03:57:33.462Z,3.64
2022-12-22T04:00:00.705Z,3.73
2022-12-22T04:02:28.025Z,3.77
2022-12-22T04:04:55.850Z,3.75
2022-12-22T04:07:22.967Z,3.75
2022-12-22T04:10:08.498Z,3.58
2022-12-22T04:12:54.091Z,3.67
2022-12-22T04:15:29.072Z,3.96
2022-12-22T04:17:58.202Z,3.81
2022-12-22T04:20:27.344Z,3.82
2022-12-22T04:23:00.544Z,3.76
2022-12-22T04:25:30.057Z,3.76
2022-12-22T04:27:57.356Z,3.86
2022-12-22T04:30:24.405Z,3.85
2022-12-22T04:32:51.777Z,3.82
2022-12-22T04:35:19.313Z,3.73
2022-12-22T04:37:46.547Z,3.73
2022-12-22T04:40:13.845Z,3.70
2022-12-22T04:42:41.069Z,3.59
2022-12-22T04:45:10.143Z,3.64
2022-12-22T04:47:37.465Z,3.60
2022-12-22T04:50:05.287Z,3.58
2022-12-22T04:52:32.340Z,3.58
2022-12-22T04:54:59.547Z,3.49
2022-12-22T04:57:26.727Z,3.53
2022-12-22T04:59:55.457Z,3.52
2022-12-22T05:02:22.739Z,3.51
2022-12-22T05:04:50.259Z,3.53
2022-12-22T05:07:17.688Z,3.52
2022-12-22T05:09:44.795Z,3.52
2022-12-22T05:12:30.829Z,3.55
2022-12-22T05:14:58.166Z,3.55
2022-12-22T05:17:25.233Z,3.48
2022-12-22T05:19:52.609Z,3.44
2022-12-22T05:22:19.715Z,3.49
2022-12-22T05:24:47.164Z,3.50
2022-12-22T05:27:14.470Z,3.30
2022-12-22T05:29:41.849Z,3.52
2022-12-22T05:32:08.942Z,3.59
2022-12-22T05:34:36.093Z,3.55
2022-12-22T05:37:03.277Z,3.65
2022-12-22T05:39:30.464Z,3.63
2022-12-22T05:41:57.822Z,3.52
2022-12-22T05:44:25.211Z,3.55
2022-12-22T05:46:52.924Z,3.61
2022-12-22T05:49:20.264Z,3.67
2022-12-22T05:51:48.059Z,3.66
2022-12-22T05:54:15.426Z,3.74
2022-12-22T05:56:42.625Z,3.85
2022-12-22T05:59:11.494Z,3.90
2022-12-22T06:01:38.939Z,3.85
2022-12-22T06:04:06.392Z,3.88
2022-12-22T06:06:33.709Z,3.81
2022-12-22T06:09:00.938Z,3.80
2022-12-22T06:11:28.357Z,3.79
2022-12-22T06:13:55.494Z,3.79
2022-12-22T06:16:24.085Z,3.86
2022-12-22T06:18:51.400Z,3.83
2022-12-22T06:21:18.481Z,3.79
2022-12-22T06:23:45.685Z,3.86
2022-12-22T06:26:12.848Z,3.83
2022-12-22T06:28:40.030Z,3.91
2022-12-22T06:31:07.271Z,3.88
2022-12-22T06:33:34.740Z,3.80
2022-12-22T06:36:05.822Z,3.87
2022-12-22T06:38:33.465Z,3.88
2022-12-22T06:41:01.004Z,3.88
2022-12-22T06:43:28.283Z,3.89
2022-12-22T06:45:55.668Z,3.86
2022-12-22T06:48:23.069Z,3.89
2022-12-22T06:50:50.794Z,3.85
2022-12-22T06:53:18.223Z,3.82
2022-12-22T06:55:45.674Z,3.82
2022-12-22T06:58:12.923Z,3.79
2022-12-22T07:00:40.151Z,3.83
2022-12-22T07:03:07.708Z,3.77
2022-12-22T07:05:35.142Z,3.68
2022-12-22T07:08:08.499Z,3.70
2022-12-22T07:10:55.161Z,3.73
2022-12-22T07:13:24.358Z,3.77
2022-12-22T07:15:59.945Z,3.74
2022-12-22T07:18:30.213Z,3.75
2022-12-22T07:21:12.417Z,3.78
2022-12-22T07:23:40.380Z,3.80
2022-12-22T07:26:09.442Z,3.83
2022-12-22T07:28:38.390Z,3.80
2022-12-22T07:31:06.338Z,3.87
2022-12-22T07:33:33.700Z,3.92
2022-12-22T07:36:04.191Z,3.95
2022-12-22T07:38:43.160Z,4.05
2022-12-22T07:41:31.632Z,4.10
2022-12-22T07:44:01.938Z,4.16
2022-12-22T07:46:36.474Z,4.23
2022-12-22T07:49:24.191Z,4.26
2022-12-22T07:51:51.992Z,4.36
2022-12-22T07:54:22.511Z,4.39
2022-12-22T07:56:50.503Z,4.40
2022-12-22T07:59:19.075Z,4.47
2022-12-22T08:01:47.834Z,4.48
2022-12-22T08:04:15.779Z,4.66
2022-12-22T08:06:43.917Z,4.66
2022-12-22T08:09:15.881Z,4.90
2022-12-22T08:11:43.831Z,4.99
2022-12-22T08:14:13.069Z,5.07
2022-12-22T08:16:40.983Z,5.19
2022-12-22T08:19:09.030Z,5.18
2022-12-22T08:21:37.065Z,5.16
2022-12-22T08:24:05.096Z,5.19
2022-12-22T08:26:44.953Z,5.22
2022-12-22T08:29:24.671Z,5.23
2022-12-22T08:31:52.479Z,5.26
2022-12-22T08:34:19.719Z,5.26
2022-12-22T08:36:51.556Z,5.16
2022-12-22T08:39:21.092Z,5.29
2022-12-22T08:41:50.940Z,5.25
2022-12-22T08:44:21.594Z,5.28
2022-12-22T08:46:49.223Z,5.45
2022-12-22T08:49:16.606Z,5.39
2022-12-22T08:51:45.367Z,5.55
2022-12-22T08:54:12.898Z,5.56
2022-12-22T08:56:40.713Z,5.57
2022-12-22T08:59:08.562Z,5.65
2022-12-22T09:01:38.663Z,5.61
2022-12-22T09:04:07.654Z,5.63
2022-12-22T09:06:40.467Z,5.68
2022-12-22T09:09:11.653Z,5.74
2022-12-22T09:11:40.383Z,5.87
2022-12-22T09:14:09.347Z,5.91
2022-12-22T09:16:37.171Z,5.90
2022-12-22T09:19:04.907Z,5.79
2022-12-22T09:21:33.296Z,5.84
2022-12-22T09:24:00.583Z,5.80
2022-12-22T09:26:29.096Z,5.80
2022-12-22T09:28:56.631Z,5.82
2022-12-22T09:31:25.618Z,5.94
2022-12-22T09:33:53.197Z,5.90
2022-12-22T09:36:27.446Z,5.94
2022-12-22T09:38:54.695Z,6.06
2022-12-22T09:41:43.131Z,6.09
2022-12-22T09:44:33.622Z,6.27
2022-12-22T09:47:27.435Z,6.22
2022-12-22T09:49:57.195Z,6.28
2022-12-22T09:52:31.913Z,6.36
2022-12-22T09:54:59.131Z,6.42
2022-12-22T09:57:30.564Z,6.49
2022-12-22T10:00:15.352Z,6.56
2022-12-22T10:03:19.773Z,6.65
2022-12-22T10:06:10.203Z,6.69
2022-12-22T10:08:40.977Z,6.99
2022-12-22T10:11:14.208Z,7.30
2022-12-22T10:13:42.154Z,7.43
2022-12-22T10:16:25.375Z,7.57
2022-12-22T10:19:13.397Z,7.64
2022-12-22T10:21:46.924Z,7.50
2022-12-22T10:24:35.916Z,7.66
2022-12-22T10:27:04.601Z,7.51
2022-12-22T10:29:33.964Z,7.43
2022-12-22T10:32:04.888Z,7.44
2022-12-22T10:34:32.548Z,7.39
2022-12-22T10:37:03.015Z,7.45
2022-12-22T10:39:38.926Z,7.69
2022-12-22T10:42:14.512Z,7.78
2022-12-22T10:44:48.177Z,7.70
2022-12-22T10:47:24.497Z,7.91
2022-12-22T10:52:33.286Z,8.12
2022-12-22T10:55:22.170Z,8.30
2022-12-22T10:57:51.793Z,8.09
2022-12-22T11:00:26.379Z,8.28
2022-12-22T11:02:55.845Z,8.15
2022-12-22T11:05:23.358Z,8.37
2022-12-22T11:07:51.380Z,8.31
2022-12-22T11:10:27.889Z,8.23
2022-12-22T11:13:05.686Z,8.31
2022-12-22T11:15:42.861Z,8.14
2022-12-22T11:18:30.255Z,8.20
2022-12-22T11:21:24.426Z,8.19
2022-12-22T11:24:07.715Z,8.03
2022-12-22T11:27:00.654Z,8.06
2022-12-22T11:29:28.224Z,8.07
2022-12-22T11:32:29.803Z,8.20
2022-12-22T11:35:17.543Z,8.26
2022-12-22T11:37:50.579Z,8.23
2022-12-22T11:40:41.428Z,8.32
2022-12-22T11:43:27.844Z,8.42
2022-12-22T11:46:23.123Z,8.34
2022-12-22T11:48:58.696Z,8.23
2022-12-22T11:51:58.099Z,8.33
2022-12-22T11:54:41.503Z,8.34
2022-12-22T11:57:19.710Z,8.31
2022-12-22T12:00:06.478Z,8.14
2022-12-22T12:02:42.763Z,8.08
2022-12-22T12:05:22.577Z,7.94
2022-12-22T12:07:56.469Z,8.02
2022-12-22T12:11:01.757Z,8.12
2022-12-22T12:13:37.431Z,8.25
2022-12-22T12:16:20.194Z,8.19
2022-12-22T12:19:05.949Z,8.23
2022-12-22T12:21:59.330Z,8.23
2022-12-22T12:24:41.889Z,8.21
2022-12-22T12:27:41.256Z,8.19
2022-12-22T12:33:23.185Z,8.01
2022-12-22T12:36:10.410Z,8.15
2022-12-22T12:39:13.527Z,8.15
2022-12-22T12:41:37.264Z,8.17
2022-12-22T12:44:09.909Z,8.21
2022-12-22T12:46:40.401Z,8.31
2022-12-22T12:49:36.507Z,8.30
2022-12-22T12:52:09.175Z,8.16
2022-12-22T12:54:36.210Z,8.10
2022-12-22T12:57:03.322Z,8.03
2022-12-22T12:59:43.241Z,7.99
2022-12-22T13:02:29.876Z,7.89
2022-12-22T13:05:12.455Z,7.79
2022-12-22T13:08:07.689Z,7.77
2022-12-22T13:10:41.252Z,7.61
2022-12-22T13:13:34.818Z,7.50
2022-12-22T13:16:02.376Z,7.47
2022-12-22T13:18:29.732Z,7.48
2022-12-22T13:21:50.321Z,7.47
2022-12-22T13:24:25.991Z,7.55
2022-12-22T13:26:56.279Z,7.31
2022-12-22T13:29:42.034Z,7.38
2022-12-22T13:32:33.666Z,7.44
2022-12-22T13:35:31.024Z,7.23
2022-12-22T13:37:59.601Z,7.45
2022-12-22T13:40:31.413Z,7.52
2022-12-22T13:43:05.420Z,7.52
2022-12-22T13:45:53.164Z,7.51
2022-12-22T13:48:45.611Z,7.45
2022-12-22T13:51:25.978Z,7.31
2022-12-22T13:54:13.378Z,7.15
2022-12-22T13:56:52.528Z,7.05
2022-12-22T13:59:28.833Z,7.11
2022-12-22T14:02:16.506Z,7.28
2022-12-22T14:04:51.960Z,7.35
2022-12-22T14:07:21.149Z,7.45
2022-12-22T14:09:56.339Z,7.51
2022-12-22T14:12:30.404Z,7.44
2022-12-22T14:15:01.348Z,7.47
2022-12-22T14:17:34.572Z,7.41
2022-12-22T14:20:24.176Z,7.27
2022-12-22T14:23:07.533Z,7.21
2022-12-22T14:25:39.744Z,7.09
2022-12-22T14:28:26.614Z,6.86
2022-12-22T14:30:57.392Z,6.79
2022-12-22T14:33:27.040Z,6.69
2022-12-22T14:36:12.891Z,6.62
2022-12-22T14:38:43.704Z,6.41
2022-12-22T14:41:38.389Z,6.29
2022-12-22T14:44:06.625Z,6.17
2022-12-22T14:46:38.914Z,6.10
2022-12-22T14:49:12.731Z,6.07
2022-12-22T14:51:40.067Z,6.14
2022-12-22T14:54:18.439Z,6.04
2022-12-22T14:56:51.533Z,6.03
2022-12-22T14:59:27.955Z,5.96
2022-12-22T15:02:22.378Z,6.04
2022-12-22T15:04:49.725Z,5.91
2022-12-22T15:07:54.067Z,5.95
2022-12-22T15:10:16.421Z,5.95
2022-12-22T15:12:45.354Z,5.97
2022-12-22T15:15:20.714Z,5.96
2022-12-22T15:17:53.074Z,5.98
2022-12-22T15:20:23.736Z,5.86
2022-12-22T15:22:51.307Z,5.86
2022-12-22T15:25:22.524Z,5.91
2022-12-22T15:27:50.355Z,5.93
2022-12-22T15:30:28.824Z,6.04
2022-12-22T15:32:57.491Z,6.07
2022-12-22T15:35:32.166Z,6.12
2022-12-22T15:38:01.505Z,6.11
2022-12-22T15:40:29.485Z,6.22
2022-12-22T15:42:56.717Z,6.12
2022-12-22T15:45:23.947Z,6.22
2022-12-22T15:47:53.914Z,6.25
2022-12-22T15:50:26.104Z,6.27
2022-12-22T15:52:56.793Z,6.68
2022-12-22T15:55:24.873Z,6.98
2022-12-22T15:57:55.198Z,7.27
2022-12-22T16:00:23.317Z,7.43
2022-12-22T16:02:51.156Z,7.73
2022-12-22T16:05:18.978Z,8.08
2022-12-22T16:07:46.208Z,8.24
2022-12-22T16:10:31.285Z,8.71
2022-12-22T16:13:01.777Z,8.96
2022-12-22T16:15:34.437Z,9.34
2022-12-22T16:18:02.868Z,9.49
2022-12-22T16:20:37.794Z,9.62
2022-12-22T16:23:08.140Z,9.72
2022-12-22T16:25:38.237Z,9.79
2022-12-22T16:28:07.033Z,9.88
2022-12-22T16:30:35.099Z,9.93
2022-12-22T16:33:02.242Z,9.85
2022-12-22T16:35:33.402Z,9.98
2022-12-22T16:38:01.149Z,10.10
2022-12-22T16:40:29.042Z,10.24
2022-12-22T16:45:47.300Z,10.32
2022-12-22T16:48:48.731Z,10.40
2022-12-22T16:51:19.811Z,10.32
2022-12-22T16:53:47.433Z,10.17
2022-12-22T16:56:18.609Z,10.23
2022-12-22T16:58:46.947Z,10.02
2022-12-22T17:01:37.395Z,9.58
2022-12-22T17:04:09.930Z,9.01
2022-12-22T17:06:37.476Z,9.07
2022-12-22T17:09:07.397Z,9.09
2022-12-22T17:11:34.689Z,8.92
2022-12-22T17:14:07.107Z,8.87
2022-12-22T17:16:34.452Z,8.77
2022-12-22T17:19:01.793Z,8.76
2022-12-22T17:21:30.141Z,8.64
2022-12-22T17:24:04.236Z,8.68
2022-12-22T17:26:33.740Z,8.52
2022-12-22T17:29:01.207Z,8.29
2022-12-22T17:31:28.705Z,8.14
2022-12-22T17:33:57.441Z,8.15
2022-12-22T17:36:37.072Z,8.16
2022-12-22T17:39:05.314Z,8.08
2022-12-22T17:41:33.227Z,8.04
2022-12-22T17:44:00.274Z,7.88
2022-12-22T17:46:27.815Z,7.75
2022-12-22T17:48:55.097Z,7.54
2022-12-22T17:51:30.233Z,7.56
2022-12-22T17:53:59.088Z,7.27
2022-12-22T17:56:28.163Z,7.11
2022-12-22T17:58:55.442Z,6.97
2022-12-22T18:01:32.130Z,7.00
2022-12-22T18:03:59.798Z,6.98
2022-12-22T18:06:34.932Z,6.90
2022-12-22T18:09:02.678Z,7.11
2022-12-22T18:11:30.122Z,6.96
2022-12-22T18:14:00.012Z,7.03
2022-12-22T18:16:27.268Z,7.00
2022-12-22T18:18:55.024Z,6.88
2022-12-22T18:21:25.021Z,6.70
2022-12-22T18:23:52.663Z,6.52
2022-12-22T18:26:29.175Z,6.52
2022-12-22T18:28:57.379Z,6.36
2022-12-22T18:31:25.949Z,6.17
2022-12-22T18:33:53.579Z,6.05
2022-12-22T18:36:29.915Z,5.93
2022-12-22T18:38:59.404Z,5.93
2022-12-22T18:41:29.827Z,6.01
2022-12-22T18:43:57.132Z,6.01
2022-12-22T18:46:24.902Z,6.21
2022-12-22T18:48:52.403Z,6.30
2022-12-22T18:51:23.529Z,6.18
2022-12-22T18:53:52.683Z,6.07
2022-12-22T18:56:20.056Z,6.00
2022-12-22T18:58:48.299Z,5.92
2022-12-22T19:01:22.162Z,5.83
2022-12-22T19:03:51.104Z,5.83
2022-12-22T19:06:20.703Z,5.91
2022-12-22T19:08:49.139Z,5.95
2022-12-22T19:11:18.939Z,5.97
2022-12-22T19:13:48.784Z,5.86
2022-12-22T19:16:25.118Z,5.78
2022-12-22T19:18:52.439Z,5.62
2022-12-22T19:21:20.258Z,5.47
2022-12-22T19:23:47.477Z,5.38
2022-12-22T19:26:27.093Z,5.42
2022-12-22T19:28:57.314Z,5.38
2022-12-22T19:31:26.954Z,5.34
2022-12-22T19:33:56.120Z,5.32
2022-12-22T19:36:28.120Z,5.48
2022-12-22T19:39:05.875Z,5.38
2022-12-22T19:41:36.371Z,5.27
2022-12-22T19:44:04.169Z,5.21
2022-12-22T19:46:35.538Z,5.15
2022-12-22T19:49:02.816Z,5.09
2022-12-22T19:51:31.740Z,5.08
2022-12-22T19:53:58.911Z,5.14
2022-12-22T19:56:29.895Z,5.12
2022-12-22T19:59:00.425Z,5.13
2022-12-22T20:01:27.738Z,5.12
2022-12-22T20:03:56.329Z,5.31
2022-12-22T20:06:23.681Z,5.26
2022-12-22T20:08:51.073Z,5.18
2022-12-22T20:11:19.907Z,5.20
2022-12-22T20:13:48.240Z,5.18
2022-12-22T20:16:17.084Z,5.20
2022-12-22T20:18:46.459Z,5.16
2022-12-22T20:21:16.766Z,5.20
2022-12-22T20:23:44.381Z,5.09
2022-12-22T20:26:19.685Z,5.07
2022-12-22T20:28:49.093Z,5.00
2022-12-22T20:31:17.965Z,4.90
2022-12-22T20:33:45.209Z,4.87
2022-12-22T20:36:26.733Z,4.85
2022-12-22T20:38:56.272Z,4.80
2022-12-22T20:41:24.468Z,4.70
2022-12-22T20:43:53.637Z,4.65
2022-12-22T20:46:28.000Z,4.67
2022-12-22T20:49:01.007Z,4.66
2022-12-22T20:51:32.103Z,4.60
2022-12-22T20:53:59.975Z,4.42
2022-12-22T20:56:28.795Z,4.34
2022-12-22T20:58:57.545Z,4.50
2022-12-22T21:01:24.802Z,4.42
2022-12-22T21:03:52.397Z,4.51
2022-12-22T21:06:26.912Z,4.54
2022-12-22T21:08:56.911Z,4.50
2022-12-22T21:11:25.095Z,4.51
2022-12-22T21:13:52.517Z,4.42
2022-12-22T21:16:26.269Z,4.41
2022-12-22T21:18:54.742Z,4.37
2022-12-22T21:21:22.421Z,4.34
2022-12-22T21:23:49.841Z,4.32
2022-12-22T21:26:29.138Z,4.34
2022-12-22T21:28:56.561Z,4.27
2022-12-22T21:31:23.947Z,4.26
2022-12-22T21:33:51.240Z,4.24
2022-12-22T21:36:25.236Z,4.27
2022-12-22T21:39:13.864Z,4.18
2022-12-22T21:41:59.484Z,4.16
2022-12-22T21:44:28.199Z,4.19
2022-12-22T21:46:57.498Z,4.23
2022-12-22T21:49:28.035Z,4.22
2022-12-22T21:51:55.929Z,4.16
2022-12-22T21:54:25.419Z,4.12
2022-12-22T21:56:54.619Z,4.24
2022-12-22T21:59:23.121Z,4.22
2022-12-22T22:01:53.096Z,4.13
2022-12-22T22:04:21.860Z,4.22
2022-12-22T22:06:49.361Z,4.27
2022-12-22T22:09:16.618Z,4.33
2022-12-22T22:12:02.247Z,4.23
2022-12-22T22:14:29.591Z,4.25
2022-12-22T22:16:56.684Z,4.22
2022-12-22T22:19:23.990Z,4.18
2022-12-22T22:21:51.071Z,4.09
2022-12-22T22:24:19.052Z,4.06
2022-12-22T22:26:46.541Z,4.08
2022-12-22T22:29:13.810Z,4.04
2022-12-22T22:31:41.444Z,3.99
2022-12-22T22:34:09.221Z,4.01
2022-12-22T22:36:36.456Z,3.94
2022-12-22T22:39:03.825Z,3.96
2022-12-22T22:41:37.670Z,3.88
2022-12-22T22:44:08.580Z,3.88
2022-12-22T22:46:35.695Z,3.78
2022-12-22T22:49:05.553Z,3.77
2022-12-22T22:51:32.839Z,3.72
2022-12-22T22:54:00.187Z,3.73
2022-12-22T22:56:27.346Z,3.77
2022-12-22T22:58:54.860Z,3.79
2022-12-22T23:01:22.097Z,3.69
2022-12-22T23:03:49.389Z,3.74
2022-12-22T23:06:17.049Z,3.71
2022-12-22T23:08:44.098Z,3.66
2022-12-22T23:11:15.159Z,3.65
2022-12-22T23:13:43.028Z,3.59
2022-12-22T23:16:10.515Z,3.62
2022-12-22T23:18:37.902Z,3.56
2022-12-22T23:21:06.804Z,3.61
2022-12-22T23:23:35.147Z,3.59
2022-12-22T23:26:02.414Z,3.58
2022-12-22T23:28:29.626Z,3.56
2022-12-22T23:30:57.424Z,3.43
2022-12-22T23:33:25.004Z,3.50
2022-12-22T23:35:52.656Z,3.55
2022-12-22T23:38:21.133Z,3.47
2022-12-22T23:40:54.026Z,3.43
2022-12-22T23:43:22.676Z,3.38
2022-12-22T23:45:50.021Z,3.40
2022-12-22T23:48:17.114Z,3.40
2022-12-22T23:50:50.720Z,3.44
2022-12-22T23:53:17.956Z,3.36
2022-12-22T23:55:46.277Z,3.39
2022-12-22T23:58:14.280Z,3.39
